Time;durP1;ratioP1;P1;durP2;ratioP2;P2;SDS_P1;SDS_P2;PMS_P1;PMS_P2;Temp;Humidity;BMP_temperature;BMP_pressure;BME280_temperature;BME280_humidity;BME280_pressure;Samples;Min_cycle;Max_cycle;Signal;HPM_P1;HPM_P2
2024/04/16 00:01:55;;;;;;;4.13;0.22;;;;;;;7.66;68.21;99295.34;11224982;26;20019;-58
2024/04/16 00:06:56;;;;;;;1.95;0.20;;;;;;;7.68;68.41;99293.34;11227690;26;20003;-58
2024/04/16 00:12:01;;;;;;;3.33;0.25;;;;;;;7.71;68.59;99282.25;11236365;26;20002;-59
2024/04/16 00:17:03;;;;;;;4.50;0.20;;;;;;;7.73;68.69;99285.56;11230253;26;20122;-58
2024/04/16 00:22:05;;;;;;;1.52;0.30;;;;;;;7.77;68.48;99269.16;11237312;26;21043;-58
2024/04/16 00:27:06;;;;;;;4.72;0.30;;;;;;;7.80;68.47;99272.31;11234939;26;20095;-60
2024/04/16 00:32:08;;;;;;;3.00;0.30;;;;;;;7.89;68.41;99270.34;11240231;26;19998;-57
2024/04/16 00:37:09;;;;;;;3.05;0.30;;;;;;;8.00;68.13;99280.59;11236781;26;20072;-58
2024/04/16 00:48:28;;;;;;;2.75;0.32;;;;;;;8.06;68.42;99271.00;11230049;26;20038;-57
2024/04/16 00:53:30;;;;;;;1.20;0.20;;;;;;;7.79;69.17;99284.00;11235796;26;19999;-59
2024/04/16 00:58:34;;;;;;;5.80;0.30;;;;;;;7.81;69.31;99276.63;11228570;26;20010;-60
2024/04/16 01:03:36;;;;;;;3.13;0.40;;;;;;;7.89;69.06;99268.50;11234698;26;20007;-60
2024/04/16 01:08:38;;;;;;;4.00;0.30;;;;;;;7.93;69.30;99263.63;11233772;26;20014;-59
2024/04/16 01:13:39;;;;;;;1.55;0.28;;;;;;;8.08;68.70;99259.06;11223063;26;20003;-59
2024/04/16 01:18:41;;;;;;;6.50;0.38;;;;;;;8.11;68.97;99253.34;11238029;26;21041;-59
2024/04/16 01:23:42;;;;;;;1.50;0.13;;;;;;;8.16;68.88;99255.47;11228163;26;20567;-58
2024/04/16 01:28:44;;;;;;;3.85;0.50;;;;;;;8.16;69.00;99260.00;11230047;26;20003;-59
2024/04/16 01:33:45;;;;;;;2.92;0.17;;;;;;;8.13;69.15;99251.31;11235034;26;20469;-60
2024/04/16 01:38:47;;;;;;;0.55;0.20;;;;;;;8.22;68.93;99267.28;11236932;26;20007;-59
2024/04/16 01:43:48;;;;;;;6.57;0.40;;;;;;;8.19;68.85;99276.50;11234850;26;19995;-59
2024/04/16 01:48:50;;;;;;;3.17;0.63;;;;;;;8.01;69.33;99282.25;11230612;26;20000;-59
2024/04/16 01:53:51;;;;;;;5.35;0.80;;;;;;;7.93;69.53;99250.22;11228381;26;20113;-59
2024/04/16 01:58:53;;;;;;;2.45;0.28;;;;;;;7.81;69.49;99231.16;11208832;26;20003;-59
2024/04/16 02:03:55;;;;;;;0.90;0.15;;;;;;;7.76;69.28;99220.19;11232169;26;20003;-59
2024/04/16 02:08:56;;;;;;;5.20;0.90;;;;;;;7.72;68.93;99225.06;11226223;26;20006;-59
2024/04/16 02:13:58;;;;;;;2.70;0.10;;;;;;;7.62;68.82;99226.34;11233788;26;20017;-59
2024/04/16 02:18:59;;;;;;;1.67;0.10;;;;;;;7.54;68.97;99230.81;11233341;26;20008;-59
2024/04/16 02:24:01;;;;;;;4.47;0.40;;;;;;;7.42;68.45;99218.88;11231176;26;20047;-61
2024/04/16 02:29:03;;;;;;;1.23;0.30;;;;;;;7.31;69.16;99217.50;11235074;26;20010;-61
2024/04/16 02:34:05;;;;;;;3.47;0.20;;;;;;;7.17;68.90;99226.34;11228879;26;20011;-60
2024/04/16 02:39:06;;;;;;;1.05;0.15;;;;;;;7.10;68.57;99222.72;11231524;26;20018;-60
2024/04/16 02:44:08;;;;;;;3.28;0.30;;;;;;;7.00;68.36;99231.00;11227287;26;20022;-60
2024/04/16 02:49:09;;;;;;;6.38;0.55;;;;;;;6.95;68.62;99244.03;11224419;26;20008;-60
2024/04/16 02:54:11;;;;;;;2.70;0.17;;;;;;;6.96;68.33;99261.75;11233284;26;20003;-60
2024/04/16 02:59:12;;;;;;;2.10;0.30;;;;;;;6.91;68.42;99261.44;11228038;26;20015;-60
2024/04/16 03:04:14;;;;;;;3.45;0.20;;;;;;;6.85;68.13;99257.69;11232944;26;20013;-61
2024/04/16 03:09:16;;;;;;;2.58;0.20;;;;;;;6.98;68.07;99234.84;11235908;26;20061;-60
2024/04/16 03:14:17;;;;;;;0.73;0.10;;;;;;;7.02;67.89;99245.00;11231550;26;19998;-61
2024/04/16 03:19:19;;;;;;;0.50;0.10;;;;;;;6.90;68.15;99238.44;11231365;26;19995;-59
2024/04/16 03:24:21;;;;;;;0.40;0.32;;;;;;;6.84;67.89;99239.16;11225443;26;20007;-60
2024/04/16 03:29:22;;;;;;;2.28;0.30;;;;;;;6.83;67.95;99235.66;11228959;26;20014;-60
2024/04/16 03:34:24;;;;;;;1.02;0.22;;;;;;;6.84;67.63;99215.94;11230294;26;20026;-61
2024/04/16 03:39:25;;;;;;;1.75;0.50;;;;;;;6.77;67.82;99228.34;11228445;26;20086;-60
2024/04/16 03:44:27;;;;;;;1.13;0.20;;;;;;;6.66;67.98;99220.75;11229807;26;20018;-60
2024/04/16 03:49:28;;;;;;;0.43;0.30;;;;;;;6.65;68.08;99216.41;11227875;26;20002;-60
2024/04/16 03:54:30;;;;;;;2.97;0.30;;;;;;;6.55;68.28;99206.81;11219717;26;20099;-61
2024/04/16 03:59:38;;;;;;;2.25;0.20;;;;;;;6.50;67.86;99205.69;11230613;26;20014;-60
2024/04/16 04:04:40;;;;;;;2.33;0.30;;;;;;;6.46;68.10;99213.22;11230639;26;20003;-60
2024/04/16 04:09:41;;;;;;;0.40;0.30;;;;;;;6.43;68.31;99224.25;11196808;26;20014;-60
2024/04/16 04:14:43;;;;;;;1.38;0.52;;;;;;;6.42;68.16;99227.94;11234651;26;19999;-59
2024/04/16 04:19:45;;;;;;;1.63;0.30;;;;;;;6.45;67.91;99232.91;11219858;26;20014;-60
2024/04/16 04:24:46;;;;;;;2.25;0.20;;;;;;;6.55;67.56;99235.34;11225405;26;20003;-59
2024/04/16 04:29:48;;;;;;;3.83;0.90;;;;;;;6.62;67.32;99233.63;11237592;26;20011;-61
2024/04/16 04:34:49;;;;;;;1.30;0.30;;;;;;;6.77;67.63;99231.00;11220829;26;20017;-59
2024/04/16 04:39:51;;;;;;;4.05;1.73;;;;;;;6.90;67.26;99233.91;11228659;26;20362;-60
2024/04/16 04:44:52;;;;;;;3.80;0.30;;;;;;;7.00;67.05;99238.19;11231355;26;19999;-61
2024/04/16 04:49:54;;;;;;;2.97;0.10;;;;;;;7.15;67.10;99241.72;11222092;26;20011;-61
2024/04/16 04:54:56;;;;;;;2.67;0.20;;;;;;;7.31;66.84;99238.06;11230086;26;20003;-61
2024/04/16 04:59:57;;;;;;;4.50;0.40;;;;;;;7.43;66.51;99225.06;11238466;26;20003;-62
2024/04/16 05:04:59;;;;;;;3.65;0.25;;;;;;;7.60;66.35;99218.50;11206829;26;20337;-61
2024/04/16 05:10:01;;;;;;;3.85;0.30;;;;;;;8.06;65.70;99204.09;11236378;26;20000;-66
2024/04/16 05:15:03;;;;;;;2.70;0.43;;;;;;;8.27;65.44;99204.13;11241422;26;20361;-66
2024/04/16 05:20:05;;;;;;;1.73;0.30;;;;;;;8.37;65.51;99209.16;11232929;26;20023;-62
2024/04/16 05:25:07;;;;;;;3.10;0.28;;;;;;;8.23;65.56;99196.66;11230997;26;20010;-62
2024/04/16 05:30:08;;;;;;;2.35;0.20;;;;;;;7.98;66.03;99206.84;11225487;26;20020;-62
2024/04/16 05:35:10;;;;;;;0.82;0.20;;;;;;;7.95;65.93;99182.13;11227627;26;20017;-62
2024/04/16 05:40:11;;;;;;;5.22;0.30;;;;;;;8.11;65.38;99197.13;11235623;26;20002;-63
2024/04/16 05:45:16;;;;;;;1.38;0.30;;;;;;;8.28;65.11;99184.34;11234929;26;20004;-63
2024/04/16 05:50:17;;;;;;;3.03;0.30;;;;;;;8.31;65.26;99183.13;11224999;26;20018;-63
2024/04/16 05:55:20;;;;;;;2.45;0.40;;;;;;;8.28;65.30;99189.72;11232205;26;20003;-62
2024/04/16 06:00:24;;;;;;;4.82;0.30;;;;;;;8.37;65.34;99176.19;11239765;26;20002;-62
2024/04/16 06:05:26;;;;;;;4.40;0.30;;;;;;;8.34;65.16;99182.78;11238300;26;20458;-62
2024/04/16 06:10:28;;;;;;;3.08;0.50;;;;;;;8.46;64.98;99172.41;11220968;26;20519;-62
2024/04/16 06:15:29;;;;;;;2.47;0.40;;;;;;;8.43;65.26;99175.47;11229729;26;20011;-62
2024/04/16 06:20:31;;;;;;;8.35;0.63;;;;;;;8.42;65.25;99166.59;11235247;26;20017;-61
2024/04/16 06:25:32;;;;;;;4.40;0.50;;;;;;;8.50;65.42;99171.00;11226621;26;20446;-62
2024/04/16 06:30:34;;;;;;;3.47;0.30;;;;;;;8.37;65.09;99160.13;11232966;26;20037;-62
2024/04/16 06:35:36;;;;;;;5.32;0.68;;;;;;;8.48;64.82;99147.09;11238734;26;20006;-62
2024/04/16 06:40:38;;;;;;;5.43;0.40;;;;;;;8.50;64.90;99147.72;11229567;26;20011;-62
2024/04/16 06:45:39;;;;;;;5.03;0.50;;;;;;;8.87;64.23;99139.59;11237339;26;20038;-62
2024/04/16 06:50:45;;;;;;;3.80;0.43;;;;;;;9.13;63.93;99134.38;11230349;26;20018;-63
2024/04/16 06:55:57;;;;;;;4.63;0.60;;;;;;;9.12;63.93;99121.19;11216488;26;20011;-61
2024/04/16 07:01:00;;;;;;;6.25;0.43;;;;;;;9.13;63.73;99134.38;11223475;26;19999;-64
2024/04/16 07:06:02;;;;;;;7.25;0.93;;;;;;;9.34;63.39;99140.72;11208609;26;20395;-59
2024/04/16 07:11:04;;;;;;;7.72;0.60;;;;;;;9.51;62.74;99128.59;11249558;26;20003;-57
2024/04/16 07:16:09;;;;;;;3.92;0.40;;;;;;;9.61;62.40;99106.78;11243394;26;20426;-58
2024/04/16 07:21:11;;;;;;;4.78;0.52;;;;;;;9.66;62.90;99115.06;11219679;26;20087;-61
2024/04/16 07:26:12;;;;;;;2.58;0.40;;;;;;;9.72;62.72;99106.22;11229870;26;20486;-60
2024/04/16 07:31:14;;;;;;;5.93;0.30;;;;;;;9.85;61.82;99105.44;11224581;26;20004;-61
2024/04/16 07:36:19;;;;;;;3.67;0.45;;;;;;;9.91;61.83;99099.25;11231008;26;20089;-60
2024/04/16 07:41:21;;;;;;;3.92;0.40;;;;;;;9.98;61.45;99088.53;11221146;26;20003;-61
2024/04/16 07:46:23;;;;;;;1.83;0.30;;;;;;;10.20;60.63;99086.50;11227811;26;19999;-61
2024/04/16 07:51:24;;;;;;;1.60;0.30;;;;;;;10.17;60.78;99094.13;11224709;26;20109;-61
2024/04/16 07:56:26;;;;;;;8.57;0.60;;;;;;;10.23;60.97;99075.34;11228277;26;20338;-61
2024/04/16 08:01:27;;;;;;;1.20;0.40;;;;;;;10.34;60.22;99065.88;11227057;26;20018;-60
2024/04/16 08:06:29;;;;;;;2.60;0.52;;;;;;;10.38;59.84;99071.66;11222365;26;20004;-63
2024/04/16 08:11:31;;;;;;;3.47;0.38;;;;;;;10.36;60.19;99066.50;11229265;26;20010;-63
2024/04/16 08:16:32;;;;;;;1.88;0.30;;;;;;;10.36;59.89;99046.88;11219559;26;20417;-68
2024/04/16 08:21:34;;;;;;;1.92;0.43;;;;;;;10.28;59.53;99050.56;11227513;26;20087;-64
2024/04/16 08:26:36;;;;;;;0.95;0.30;;;;;;;10.31;59.96;99044.81;11231215;26;20015;-67
2024/04/16 08:31:37;;;;;;;2.47;0.25;;;;;;;10.36;59.97;99036.94;11232486;26;20039;-65
2024/04/16 08:36:39;;;;;;;1.95;0.50;;;;;;;10.31;58.95;99026.00;11236911;26;20003;-66
2024/04/16 08:41:40;;;;;;;1.67;0.20;;;;;;;10.25;59.21;99030.31;11239500;26;19995;-70
2024/04/16 08:46:43;;;;;;;3.22;0.38;;;;;;;9.53;61.29;99039.88;11238226;26;20003;-64
2024/04/16 08:51:46;;;;;;;1.27;0.30;;;;;;;8.92;63.77;99043.34;11233702;26;20100;-63
2024/04/16 08:56:49;;;;;;;2.92;0.32;;;;;;;8.63;64.61;99039.03;11229704;26;20010;-63
2024/04/16 09:01:52;;;;;;;1.60;0.40;;;;;;;8.40;66.22;99033.91;11238306;26;20166;-64
2024/04/16 09:06:55;;;;;;;6.25;0.65;;;;;;;8.06;67.78;99030.97;11239643;26;20051;-65
2024/04/16 09:11:56;;;;;;;3.22;0.30;;;;;;;7.77;68.81;99029.22;11251202;26;20495;-65
2024/04/16 09:17:01;;;;;;;0.90;0.10;;;;;;;7.69;69.67;99040.88;11285868;26;20297;-63
2024/04/16 09:22:02;;;;;;;3.15;0.98;;;;;;;7.67;70.30;99026.06;11281970;26;20001;-62
2024/04/16 09:27:08;;;;;;;2.40;0.45;;;;;;;7.59;71.31;99018.97;11279110;26;20006;-61
2024/04/16 09:32:10;;;;;;;2.85;0.30;;;;;;;7.60;71.84;99007.25;11283796;26;19999;-61
2024/04/16 09:37:18;;;;;;;0.90;0.30;;;;;;;7.53;72.71;99009.84;11226244;21;20019;-87
2024/04/16 09:42:25;;;;;;;2.88;0.30;;;;;;;7.49;73.73;99005.09;11159292;26;20011;-87
2024/04/16 09:47:28;;;;;;;1.08;0.30;;;;;;;7.60;73.48;99011.78;11160989;26;20000;-88
2024/04/16 09:52:31;;;;;;;1.95;0.40;;;;;;;7.69;73.84;98998.09;11136082;26;20066;-87
2024/04/16 09:57:35;;;;;;;5.05;0.55;;;;;;;7.74;74.15;98993.00;11171844;26;20010;-89
2024/04/16 10:02:39;;;;;;;1.75;0.50;;;;;;;7.93;74.63;98978.13;11138981;26;20004;-88
2024/04/16 10:07:45;;;;;;;1.20;0.40;;;;;;;8.16;74.76;98989.66;11133588;26;20014;-86
2024/04/16 10:23:21;;;;;;;0.80;0.30;;;;;;;8.33;75.46;98977.63;11948459;21;20025;-89
2024/04/16 10:28:29;;;;;;;1.13;0.40;;;;;;;8.46;75.43;98971.56;10913604;26;20099;-89
2024/04/16 10:33:35;;;;;;;6.22;0.45;;;;;;;8.78;75.28;98942.47;10900240;27;20537;-88
2024/04/16 10:38:38;;;;;;;2.92;0.40;;;;;;;9.00;75.75;98935.13;10897429;27;20021;-89
2024/04/16 10:43:44;;;;;;;0.90;0.30;;;;;;;9.02;75.69;98938.44;10900474;27;20018;-89
2024/04/16 10:48:47;;;;;;;;;;;;;;;9.04;75.85;98942.56;10898949;26;20054;-86
2024/04/16 10:53:49;;;;;;;1.75;0.30;;;;;;;9.20;75.70;98936.06;10912692;27;20262;-88
2024/04/16 10:58:51;;;;;;;1.20;0.20;;;;;;;9.37;75.48;98944.53;10901045;26;20038;-89
2024/04/16 11:03:53;;;;;;;0.50;0.20;;;;;;;9.40;76.07;98933.41;10964618;26;20005;-90
2024/04/16 11:08:54;;;;;;;2.78;0.20;;;;;;;9.81;75.56;98921.66;10966436;26;20017;-88
2024/04/16 11:13:56;;;;;;;0.10;0.10;;;;;;;10.11;75.03;98907.81;11028102;26;20045;-86
2024/04/16 11:18:59;;;;;;;2.70;0.17;;;;;;;10.31;75.05;98905.97;11041128;26;20010;-87
2024/04/16 11:24:02;;;;;;;0.10;0.03;;;;;;;10.39;74.79;98896.84;10983182;26;20006;-86
2024/04/16 11:29:04;;;;;;;1.08;0.10;;;;;;;10.59;74.15;98910.22;10944440;21;20006;-58
2024/04/16 11:34:06;;;;;;;0.65;0.20;;;;;;;10.83;74.17;98876.44;10837099;27;20019;-58
2024/04/16 11:39:08;;;;;;;0.10;0.10;;;;;;;10.87;73.65;98876.84;10813185;27;22558;-62
2024/04/16 11:44:10;;;;;;;0.28;0.10;;;;;;;10.95;73.52;98881.13;10791413;27;20394;-63
2024/04/16 11:49:13;;;;;;;2.80;0.10;;;;;;;11.19;72.73;98899.19;10797016;27;20003;-67
2024/04/16 11:54:14;;;;;;;0.45;0.20;;;;;;;11.75;70.33;98886.81;10795452;27;20007;-65
2024/04/16 11:59:16;;;;;;;1.35;0.10;;;;;;;11.71;70.98;98882.91;10791997;27;20004;-66
2024/04/16 12:04:17;;;;;;;2.15;0.00;;;;;;;11.31;71.78;98888.56;10797477;27;20008;-65
2024/04/16 12:09:20;;;;;;;0.22;0.10;;;;;;;11.24;71.83;98895.88;10823540;27;20003;-65
2024/04/16 12:14:21;;;;;;;0.55;0.10;;;;;;;11.27;71.28;98881.97;10793240;27;20027;-61
2024/04/16 12:19:23;;;;;;;0.40;0.35;;;;;;;11.33;70.14;98894.56;10811409;27;20441;-60
2024/04/16 12:24:24;;;;;;;0.28;0.10;;;;;;;11.40;69.40;98889.16;10812407;27;20016;-60
2024/04/16 12:29:28;;;;;;;0.25;0.10;;;;;;;11.60;68.91;98883.63;10845274;27;20314;-60
2024/04/16 12:34:30;;;;;;;0.40;0.10;;;;;;;11.81;68.53;98875.16;10885595;27;20346;-60
2024/04/16 12:39:32;;;;;;;1.38;0.10;;;;;;;11.65;67.59;98873.84;10859297;27;20001;-60
2024/04/16 12:44:33;;;;;;;3.53;0.95;;;;;;;11.80;67.08;98864.59;10880459;27;20007;-61
2024/04/16 12:49:35;;;;;;;0.10;0.03;;;;;;;11.93;65.21;98872.59;10878971;27;20006;-61
2024/04/16 12:54:39;;;;;;;1.27;0.20;;;;;;;12.11;64.26;98896.06;10870022;27;20490;-60
2024/04/16 12:59:41;;;;;;;0.30;0.03;;;;;;;12.07;63.91;98876.00;10884171;27;20018;-59
2024/04/16 13:04:42;;;;;;;1.73;0.30;;;;;;;12.24;63.35;98871.69;10888522;27;20334;-60
2024/04/16 13:09:44;;;;;;;0.10;0.05;;;;;;;12.35;63.46;98878.19;10887211;27;20310;-62
2024/04/16 13:14:46;;;;;;;0.10;0.00;;;;;;;12.23;63.71;98896.16;10886618;27;20446;-61
2024/04/16 13:19:48;;;;;;;0.43;0.00;;;;;;;12.20;63.88;98894.69;10883698;27;20007;-59
2024/04/16 13:24:54;;;;;;;0.87;0.00;;;;;;;11.98;62.81;98898.84;10877362;27;20026;-58
2024/04/16 13:29:56;;;;;;;1.00;0.10;;;;;;;11.56;63.53;98910.13;10880290;27;20374;-59
2024/04/16 13:34:58;;;;;;;2.17;1.00;;;;;;;11.30;64.78;98903.88;10881643;27;20020;-60
2024/04/16 13:40:01;;;;;;;0.52;0.03;;;;;;;11.14;64.51;98935.84;10878990;27;20723;-63
2024/04/16 13:45:03;;;;;;;0.00;0.00;;;;;;;10.73;64.84;99001.56;10865973;27;20017;-60
2024/04/16 13:50:05;;;;;;;1.23;0.00;;;;;;;9.19;67.44;99046.97;10821935;27;20006;-59
2024/04/16 13:55:06;;;;;;;0.00;0.00;;;;;;;8.61;69.46;99052.63;10884780;27;20003;-58
2024/04/16 14:00:09;;;;;;;0.00;0.00;;;;;;;8.40;70.15;99044.63;10875746;27;20481;-58
2024/04/16 14:05:10;;;;;;;0.00;0.00;;;;;;;8.18;70.74;99052.69;10887338;27;20007;-60
2024/04/16 14:10:12;;;;;;;1.85;0.20;;;;;;;8.01;71.56;99053.97;10867459;27;20010;-61
2024/04/16 14:15:14;;;;;;;1.13;0.10;;;;;;;7.89;72.09;99062.47;10855991;27;20452;-62
2024/04/16 14:20:16;;;;;;;2.05;0.10;;;;;;;7.74;73.54;99045.66;10802629;27;20362;-62
2024/04/16 14:25:17;;;;;;;0.57;0.00;;;;;;;7.84;73.27;99048.88;10837187;27;20028;-62
2024/04/16 14:30:19;;;;;;;0.28;0.00;;;;;;;7.98;73.31;99054.31;10864788;27;20018;-62
2024/04/16 14:35:20;;;;;;;0.00;0.00;;;;;;;8.30;73.06;99061.84;10864636;27;20007;-62
2024/04/16 14:40:22;;;;;;;1.65;0.00;;;;;;;8.61;73.11;99044.59;10862083;27;20014;-61
2024/04/16 14:45:24;;;;;;;1.63;0.00;;;;;;;8.85;72.81;99035.28;10865205;27;20006;-61
2024/04/16 14:50:25;;;;;;;0.50;0.10;;;;;;;9.05;73.54;99031.88;10868005;27;20050;-61
2024/04/16 14:55:27;;;;;;;0.70;0.20;;;;;;;9.25;73.54;99054.22;10869160;27;20018;-61
2024/04/16 15:00:28;;;;;;;0.43;0.13;;;;;;;9.54;73.32;99076.44;10868680;27;20011;-61
2024/04/16 15:05:30;;;;;;;1.15;0.20;;;;;;;9.67;73.38;99073.78;10869010;27;20748;-61
2024/04/16 15:10:32;;;;;;;1.13;0.17;;;;;;;9.75;73.90;99088.88;10869298;27;20025;-61
2024/04/16 15:15:34;;;;;;;1.42;0.57;;;;;;;9.91;73.43;99095.72;10868161;27;20011;-65
2024/04/16 15:20:36;;;;;;;0.95;0.10;;;;;;;9.93;73.19;99105.25;10888310;26;20470;-63
2024/04/16 15:25:37;;;;;;;1.95;0.10;;;;;;;10.11;72.93;99098.44;10869133;27;20006;-64
2024/04/16 15:30:39;;;;;;;0.30;0.10;;;;;;;10.36;72.70;99076.41;10864162;27;20006;-64
2024/04/16 15:35:48;;;;;;;0.10;0.08;;;;;;;10.30;72.36;99088.81;10873214;27;20017;-65
2024/04/16 15:40:50;;;;;;;0.22;0.10;;;;;;;10.21;72.48;99104.28;10850649;27;20364;-65
2024/04/16 15:45:52;;;;;;;0.03;0.03;;;;;;;10.20;72.16;99097.22;10869139;27;20006;-66
2024/04/16 15:50:54;;;;;;;0.20;0.20;;;;;;;10.22;71.50;99113.16;10867773;27;20018;-66
2024/04/16 15:55:56;;;;;;;0.75;0.10;;;;;;;10.19;71.30;99117.06;10869491;27;20006;-65
2024/04/16 16:00:57;;;;;;;0.63;0.10;;;;;;;10.23;70.24;99133.59;10861006;27;20025;-65
2024/04/16 16:05:59;;;;;;;1.45;0.10;;;;;;;10.20;70.62;99129.47;10865481;27;20022;-66
2024/04/16 16:11:01;;;;;;;0.17;0.03;;;;;;;10.15;70.17;99149.88;10874343;27;20405;-63
2024/04/16 16:16:03;;;;;;;1.45;0.00;;;;;;;10.00;70.01;99152.75;10849317;27;20021;-68
2024/04/16 16:21:07;;;;;;;0.20;0.10;;;;;;;9.85;69.95;99159.13;10888352;27;20006;-68
2024/04/16 16:26:09;;;;;;;0.03;0.00;;;;;;;9.30;70.57;99177.81;10853964;27;20006;-61
2024/04/16 16:31:12;;;;;;;1.40;0.20;;;;;;;8.77;71.69;99169.41;10843793;27;20021;-61
2024/04/16 16:36:16;;;;;;;0.05;0.03;;;;;;;8.80;71.55;99150.22;10859706;27;20013;-61
2024/04/16 16:41:19;;;;;;;1.27;0.10;;;;;;;8.74;71.98;99161.72;10840036;27;19998;-61
2024/04/16 16:46:21;;;;;;;0.28;0.17;;;;;;;8.68;71.98;99159.81;10822957;27;20047;-60
2024/04/16 16:51:22;;;;;;;1.25;0.10;;;;;;;8.80;71.34;99158.28;10841744;27;20010;-60
2024/04/16 16:56:27;;;;;;;0.22;0.10;;;;;;;8.91;70.49;99162.28;10881004;27;20446;-60
2024/04/16 17:01:29;;;;;;;1.55;0.17;;;;;;;9.12;70.38;99170.28;10849141;27;20097;-61
2024/04/16 17:06:31;;;;;;;2.25;0.20;;;;;;;9.13;70.42;99179.16;10841867;27;20020;-60
2024/04/16 17:11:33;;;;;;;1.40;0.20;;;;;;;9.22;69.71;99183.34;10823154;27;20003;-61
2024/04/16 17:16:35;;;;;;;1.02;0.10;;;;;;;9.28;69.68;99184.38;10844980;27;20543;-61
2024/04/16 17:21:36;;;;;;;0.75;0.20;;;;;;;9.30;69.36;99177.81;10880458;27;20002;-61
2024/04/16 17:26:38;;;;;;;0.20;0.20;;;;;;;9.35;68.95;99185.28;10861944;27;20002;-61
2024/04/16 17:31:39;;;;;;;1.63;0.10;;;;;;;9.46;69.33;99183.91;10868620;27;20001;-61
2024/04/16 17:36:41;;;;;;;1.30;0.28;;;;;;;9.48;69.34;99203.31;10850561;27;20021;-67
2024/04/16 17:41:43;;;;;;;0.68;0.13;;;;;;;9.46;68.75;99197.31;10885122;27;20007;-66
2024/04/16 17:46:45;;;;;;;1.48;0.13;;;;;;;9.38;69.17;99197.44;10890287;27;20076;-68
2024/04/16 17:51:49;;;;;;;0.40;0.10;;;;;;;9.38;69.31;99195.63;10870065;27;20561;-67
2024/04/16 17:56:50;;;;;;;0.30;0.10;;;;;;;9.39;69.48;99188.38;10883224;27;20017;-65
2024/04/16 18:01:52;;;;;;;0.20;0.13;;;;;;;9.41;69.22;99202.44;10859649;27;20022;-67
2024/04/16 18:06:54;;;;;;;0.73;0.10;;;;;;;9.45;69.37;99215.25;10876938;27;20110;-65
2024/04/16 18:11:56;;;;;;;0.50;0.20;;;;;;;9.61;69.20;99226.69;10894440;26;20018;-63
2024/04/16 18:16:58;;;;;;;0.43;0.22;;;;;;;9.68;68.71;99243.66;10884720;27;20489;-65
2024/04/16 18:22:00;;;;;;;0.95;0.30;;;;;;;9.75;68.55;99254.44;10854840;27;20473;-66
2024/04/16 18:27:02;;;;;;;0.88;0.30;;;;;;;9.68;68.67;99257.91;10855630;27;20021;-66
2024/04/16 18:32:04;;;;;;;0.98;0.30;;;;;;;9.72;69.15;99264.53;10891403;26;20021;-65
2024/04/16 18:37:07;;;;;;;0.47;0.20;;;;;;;9.69;68.81;99281.00;10873390;27;20019;-72
2024/04/16 18:42:09;;;;;;;0.85;0.55;;;;;;;9.72;68.81;99279.81;10837722;27;20007;-70
2024/04/16 18:47:11;;;;;;;0.32;0.30;;;;;;;9.69;68.71;99282.88;10877723;27;20007;-70
2024/04/16 18:52:13;;;;;;;0.85;0.40;;;;;;;9.65;68.86;99290.47;10873464;27;20006;-69
2024/04/16 18:57:14;;;;;;;1.10;0.40;;;;;;;9.56;69.12;99296.19;10869613;27;19999;-70
2024/04/16 19:02:17;;;;;;;1.02;0.45;;;;;;;9.51;69.00;99300.28;10873706;27;20007;-69
2024/04/16 19:07:19;;;;;;;1.80;0.40;;;;;;;9.46;69.23;99299.25;10872151;27;20132;-70
2024/04/16 19:12:21;;;;;;;0.90;0.40;;;;;;;9.30;69.84;99306.53;10843758;27;20002;-70
2024/04/16 19:17:23;;;;;;;2.10;0.68;;;;;;;9.25;69.89;99317.00;10871332;27;20006;-67
2024/04/16 19:22:24;;;;;;;4.20;0.70;;;;;;;9.23;69.66;99326.28;10863543;27;20678;-68
2024/04/16 19:27:27;;;;;;;0.60;0.40;;;;;;;9.18;70.14;99331.38;10838706;27;20010;-68
2024/04/16 19:32:32;;;;;;;1.02;0.40;;;;;;;9.19;69.98;99333.06;10837379;27;20003;-68
2024/04/16 19:37:34;;;;;;;1.95;0.45;;;;;;;9.17;69.75;99340.47;10860978;27;20017;-68
2024/04/16 19:42:35;;;;;;;0.80;0.60;;;;;;;9.12;69.71;99341.00;10866495;27;20460;-69
2024/04/16 19:47:37;;;;;;;1.33;0.60;;;;;;;9.07;70.23;99341.59;10879199;27;20021;-60
2024/04/16 19:52:38;;;;;;;0.70;0.45;;;;;;;8.94;70.18;99344.13;10875057;27;20075;-60
2024/04/16 19:57:42;;;;;;;0.95;0.50;;;;;;;8.85;70.68;99348.78;10866628;27;20025;-58
2024/04/16 20:02:43;;;;;;;0.50;0.40;;;;;;;8.82;70.28;99353.69;10872378;27;20007;-58
2024/04/16 20:07:45;;;;;;;0.80;0.52;;;;;;;8.83;70.47;99358.88;10867689;27;20336;-58
2024/04/16 20:12:47;;;;;;;1.20;0.68;;;;;;;8.83;70.37;99353.50;10865592;27;20062;-59
2024/04/16 20:17:49;;;;;;;0.77;0.50;;;;;;;8.87;70.15;99362.84;10853130;27;20349;-58
2024/04/16 20:22:50;;;;;;;3.28;0.88;;;;;;;8.90;69.91;99367.78;10836081;27;20497;-59
2024/04/16 20:27:53;;;;;;;1.33;0.70;;;;;;;9.02;69.27;99378.84;10874093;27;22421;-58
2024/04/16 20:32:55;;;;;;;2.38;1.25;;;;;;;9.04;69.96;99387.53;10869874;27;20006;-59
2024/04/16 20:37:57;;;;;;;2.83;1.38;;;;;;;9.04;69.75;99392.91;10868170;27;20022;-58
2024/04/16 20:42:58;;;;;;;1.88;1.00;;;;;;;9.03;69.79;99390.44;10868893;27;20025;-58
2024/04/16 20:48:02;;;;;;;1.35;0.73;;;;;;;9.01;70.14;99403.19;10863019;27;20003;-58
2024/04/16 20:53:03;;;;;;;2.28;1.27;;;;;;;9.02;69.59;99394.13;10862684;27;20013;-59
2024/04/16 20:58:05;;;;;;;1.13;0.90;;;;;;;9.02;69.54;99408.34;10864937;27;20448;-58
2024/04/16 21:03:07;;;;;;;2.10;1.02;;;;;;;9.05;69.89;99407.97;10869973;27;20007;-59
2024/04/16 21:08:08;;;;;;;2.33;0.80;;;;;;;9.04;69.65;99413.50;10874839;27;20007;-61
2024/04/16 21:13:10;;;;;;;2.63;1.10;;;;;;;9.07;70.14;99418.50;10862043;27;20017;-60
2024/04/16 21:18:11;;;;;;;2.10;1.30;;;;;;;9.09;69.82;99405.75;10857124;27;20003;-61
2024/04/16 21:23:16;;;;;;;1.55;1.15;;;;;;;9.11;70.28;99417.13;10874952;27;20361;-60
2024/04/16 21:28:17;;;;;;;2.55;1.20;;;;;;;9.21;70.03;99414.94;10875344;27;20007;-60
2024/04/16 21:33:19;;;;;;;1.83;1.27;;;;;;;9.19;70.09;99411.63;10875958;26;20106;-61
2024/04/16 21:38:21;;;;;;;2.47;1.40;;;;;;;9.17;69.93;99410.16;10863612;27;20033;-61
2024/04/16 21:43:22;;;;;;;1.77;1.20;;;;;;;9.24;69.73;99419.09;10868560;27;20010;-60
2024/04/16 21:48:24;;;;;;;2.00;1.40;;;;;;;9.26;69.62;99425.94;10879504;27;20021;-60
2024/04/16 21:53:25;;;;;;;2.55;1.55;;;;;;;9.26;69.81;99423.25;10880006;27;20019;-60
2024/04/16 21:58:27;;;;;;;2.30;1.20;;;;;;;9.16;69.93;99435.31;10875126;27;20021;-60
2024/04/16 22:03:28;;;;;;;3.72;2.05;;;;;;;9.09;69.94;99436.06;10861182;27;20014;-60
2024/04/16 22:08:30;;;;;;;2.53;1.50;;;;;;;9.06;70.12;99440.97;10865713;27;20007;-61
2024/04/16 22:13:32;;;;;;;3.88;2.13;;;;;;;9.02;70.51;99443.19;10868061;27;20011;-60
2024/04/16 22:18:33;;;;;;;3.42;2.22;;;;;;;8.99;70.02;99440.06;10871704;27;20009;-59
2024/04/16 22:23:35;;;;;;;6.05;2.22;;;;;;;8.87;70.45;99445.91;10832099;27;20053;-60
2024/04/16 22:28:37;;;;;;;3.75;2.15;;;;;;;8.88;70.51;99450.22;10869014;27;20021;-60
2024/04/16 22:33:38;;;;;;;2.58;1.60;;;;;;;8.86;70.27;99452.28;10868539;27;20021;-60
2024/04/16 22:38:40;;;;;;;2.35;1.50;;;;;;;8.88;70.50;99462.81;10865810;27;19998;-60
2024/04/16 22:43:41;;;;;;;2.42;1.70;;;;;;;8.99;70.31;99469.56;10832167;27;20007;-60
2024/04/16 22:48:43;;;;;;;4.53;2.55;;;;;;;9.06;70.17;99468.63;10863464;27;20002;-60
2024/04/16 22:53:45;;;;;;;2.55;1.70;;;;;;;9.04;69.92;99481.34;10861541;27;20372;-60
2024/04/16 22:58:46;;;;;;;4.50;2.83;;;;;;;9.09;69.80;99476.28;10860624;27;20470;-60
2024/04/16 23:03:48;;;;;;;13.98;5.55;;;;;;;9.10;70.33;99480.63;10860179;27;20086;-61
2024/04/16 23:08:49;;;;;;;6.22;3.30;;;;;;;9.15;70.13;99473.88;10865740;27;20108;-61
2024/04/16 23:13:51;;;;;;;6.28;2.38;;;;;;;9.16;70.29;99470.16;10872096;27;20018;-60
2024/04/16 23:18:52;;;;;;;6.13;3.28;;;;;;;9.22;69.99;99472.06;10869222;27;20014;-60
2024/04/16 23:23:54;;;;;;;4.63;2.28;;;;;;;9.24;70.05;99476.25;10872229;27;20013;-60
2024/04/16 23:28:55;;;;;;;3.83;2.65;;;;;;;9.29;69.92;99476.50;10871437;27;20014;-60
2024/04/16 23:33:57;;;;;;;5.28;3.40;;;;;;;9.25;70.16;99475.22;10873221;27;20006;-60
2024/04/16 23:38:59;;;;;;;6.57;3.25;;;;;;;9.35;70.51;99474.09;10856767;27;20342;-60
2024/04/16 23:44:00;;;;;;;6.88;3.45;;;;;;;9.42;70.04;99470.47;10868485;27;20003;-60
2024/04/16 23:49:02;;;;;;;4.85;3.30;;;;;;;9.44;70.19;99467.56;10865652;27;20447;-60
2024/04/16 23:54:03;;;;;;;7.72;4.07;;;;;;;9.49;69.54;99463.28;10870909;27;20018;-60